Time;durP1;ratioP1;P1;durP2;ratioP2;P2;SDS_P1;SDS_P2;PMS_P1;PMS_P2;Temp;Humidity;BMP_temperature;BMP_pressure;BME280_temperature;BME280_humidity;BME280_pressure;Samples;Min_cycle;Max_cycle;Signal;HPM_P1;HPM_P2
2020/12/02 00:01:48;;;;;;;7.82;6.18;;;2.00;94.50;;;;;;5028069;28;20021;-81
2020/12/02 00:04:13;;;;;;;7.32;5.35;;;2.40;94.60;;;;;;5011739;28;20018;-80
2020/12/02 00:06:40;;;;;;;5.70;5.13;;;1.70;99.90;;;;;;5011806;28;20032;-80
2020/12/02 00:09:14;;;;;;;6.53;5.15;;;2.40;94.80;;;;;;4995292;28;20395;-79
2020/12/02 00:11:39;;;;;;;5.75;5.15;;;2.50;99.10;;;;;;5011925;28;20053;-80
2020/12/02 00:14:07;;;;;;;5.65;4.80;;;2.80;95.00;;;;;;5010575;28;20061;-81
2020/12/02 00:16:33;;;;;;;6.63;5.05;;;3.10;94.90;;;;;;5028194;28;20033;-81
2020/12/02 00:18:58;;;;;;;7.57;4.72;;;2.60;94.80;;;;;;5027940;28;20036;-81
2020/12/02 00:21:25;;;;;;;4.97;4.45;;;1.80;99.90;;;;;;5011520;28;20076;-81
2020/12/02 00:23:52;;;;;;;5.80;4.78;;;2.80;99.10;;;;;;5011409;28;20112;-80
2020/12/02 00:26:18;;;;;;;5.43;4.35;;;3.00;94.90;;;;;;5011258;28;20380;-80
2020/12/02 00:28:43;;;;;;;5.05;4.47;;;2.30;94.80;;;;;;4994971;28;20049;-80
2020/12/02 00:31:10;;;;;;;5.75;4.80;;;1.80;98.10;;;;;;5010092;28;20530;-79
2020/12/02 00:33:35;;;;;;;4.88;4.38;;;2.90;99.00;;;;;;5010932;28;20513;-80
2020/12/02 00:36:01;;;;;;;4.80;4.30;;;2.30;95.00;;;;;;5027628;28;20029;-80
2020/12/02 00:38:26;;;;;;;4.93;4.25;;;2.20;94.90;;;;;;5011054;28;20550;-80
2020/12/02 00:40:52;;;;;;;5.78;4.50;;;2.40;95.00;;;;;;5027493;28;20030;-81
2020/12/02 00:43:20;;;;;;;5.13;4.30;;;1.70;99.90;;;;;;5010935;28;20029;-80
2020/12/02 00:45:46;;;;;;;4.93;4.43;;;3.00;99.10;;;;;;5011338;28;20017;-80
2020/12/02 00:48:18;;;;;;;5.40;4.20;;;2.30;94.70;;;;;;5011138;28;20044;-80
2020/12/02 00:50:43;;;;;;;4.90;4.25;;;1.80;94.50;;;;;;5011772;28;20529;-79
2020/12/02 00:53:11;;;;;;;4.90;4.05;;;3.40;94.90;;;;;;5027786;28;20037;-79
2020/12/02 00:55:38;;;;;;;4.63;4.22;;;1.80;98.00;;;;;;5027389;28;20018;-80
2020/12/02 00:58:22;;;;;;;4.80;4.05;;;2.60;98.60;;;;;;5011028;28;20014;-80
2020/12/02 01:00:47;;;;;;;4.35;3.88;;;1.90;94.50;;;;;;5027297;28;20029;-80
2020/12/02 01:03:18;;;;;;;5.07;4.38;;;2.00;94.70;;;;;;5011305;28;20040;-81
2020/12/02 01:05:47;;;;;;;4.55;4.00;;;3.30;94.90;;;;;;5011308;28;20037;-81
2020/12/02 01:08:41;;;;;;;4.03;3.63;;;1.80;99.50;;;;;;5027444;28;20036;-80
2020/12/02 01:11:23;;;;;;;4.50;4.10;;;2.50;94.40;;;;;;5026757;28;20567;-79
2020/12/02 01:13:59;;;;;;;;;;;1.70;97.10;;;;;;4995456;28;20029;-82
2020/12/02 01:16:33;;;;;;;6.10;4.55;;;2.40;94.60;;;;;;5010553;28;19960;-81
2020/12/02 01:18:59;;;;;;;5.18;4.28;;;2.40;94.70;;;;;;5011500;28;20037;-81
2020/12/02 01:21:43;;;;;;;4.35;3.95;;;2.30;94.90;;;;;;5027473;28;20033;-82
2020/12/02 01:24:13;;;;;;;4.28;3.88;;;1.70;94.70;;;;;;5012712;28;20363;-81
2020/12/02 01:26:43;;;;;;;4.10;3.70;;;1.50;99.90;;;;;;5014434;28;20041;-80
2020/12/02 01:29:35;;;;;;;4.60;4.03;;;2.40;99.00;;;;;;5014787;28;20223;-80
2020/12/02 01:32:01;;;;;;;4.68;4.18;;;3.10;95.30;;;;;;5030014;28;20414;-80
2020/12/02 01:34:27;;;;;;;4.75;3.90;;;2.40;95.20;;;;;;4998426;28;20396;-81
2020/12/02 01:37:17;;;;;;;4.93;4.43;;;2.50;95.20;;;;;;5030828;28;20064;-80
2020/12/02 01:39:54;;;;;;;6.43;5.40;;;1.80;99.90;;;;;;5032085;28;20037;-80
2020/12/02 01:42:19;;;;;;;7.43;6.35;;;2.10;99.90;;;;;;4983538;28;20049;-80
2020/12/02 01:44:45;;;;;;;8.88;6.85;;;1.50;94.90;;;;;;4997796;28;20055;-80
2020/12/02 01:47:26;;;;;;;9.93;7.53;;;2.80;95.10;;;;;;5014106;28;20049;-81
2020/12/02 01:50:03;;;;;;;8.13;6.95;;;1.60;99.90;;;;;;5030277;28;20063;-80
2020/12/02 01:52:45;;;;;;;10.23;7.97;;;1.70;94.80;;;;;;4998885;28;20036;-79
2020/12/02 01:55:11;;;;;;;;;;;1.80;94.90;;;;;;5030827;28;20037;-80
2020/12/02 01:57:37;;;;;;;9.15;7.15;;;1.70;94.90;;;;;;5030533;28;19901;-80
2020/12/02 02:00:03;;;;;;;10.85;7.40;;;;;;;;;;5013783;28;20108;-81
2020/12/02 02:02:50;;;;;;;8.73;7.47;;;1.80;97.40;;;;;;5031384;28;20422;-81
2020/12/02 02:05:34;;;;;;;9.90;7.35;;;1.70;94.90;;;;;;5030516;28;20106;-80
2020/12/02 02:08:00;;;;;;;8.13;6.72;;;1.70;94.90;;;;;;5029920;28;20083;-80
2020/12/02 02:10:35;;;;;;;7.97;6.53;;;1.60;99.90;;;;;;5030075;28;20025;-81
2020/12/02 02:13:28;;;;;;;8.63;6.50;;;2.90;95.30;;;;;;5013971;28;20427;-81
2020/12/02 02:16:03;;;;;;;6.63;5.93;;;1.80;97.80;;;;;;5014755;28;20108;-81
2020/12/02 02:18:29;;;;;;;9.68;6.95;;;2.90;95.20;;;;;;5031393;28;20029;-80
2020/12/02 02:21:00;;;;;;;7.85;6.05;;;2.80;95.10;;;;;;5013412;28;20057;-80
2020/12/02 02:23:26;;;;;;;8.00;7.18;;;;;;;;;;5030008;28;20049;-81
2020/12/02 02:26:20;;;;;;;8.73;7.63;;;1.70;97.10;;;;;;5029911;28;20026;-80
2020/12/02 02:29:11;;;;;;;7.20;6.40;;;3.10;95.10;;;;;;5014852;28;20057;-79
2020/12/02 02:31:45;;;;;;;8.15;6.20;;;1.70;94.80;;;;;;5029558;28;20647;-81
2020/12/02 02:34:11;;;;;;;7.97;7.00;;;2.00;94.90;;;;;;5014834;28;20037;-81
2020/12/02 02:36:37;;;;;;;9.45;6.95;;;2.90;95.30;;;;;;4996200;28;20037;-80
2020/12/02 02:39:03;;;;;;;7.63;6.60;;;1.70;99.90;;;;;;5013055;28;20029;-82
2020/12/02 02:41:29;;;;;;;8.48;6.53;;;2.70;95.30;;;;;;5013391;28;20116;-80
2020/12/02 02:43:54;;;;;;;7.60;6.80;;;2.70;95.20;;;;;;5030821;28;20113;-80
2020/12/02 02:46:20;;;;;;;6.80;6.10;;;2.30;95.20;;;;;;5029484;28;20095;-80
2020/12/02 02:48:46;;;;;;;6.97;6.28;;;1.50;99.90;;;;;;4996638;28;20058;-80
2020/12/02 02:51:11;;;;;;;8.00;6.40;;;1.50;94.90;;;;;;5012946;28;20044;-80
2020/12/02 02:53:37;;;;;;;7.35;6.55;;;2.30;95.00;;;;;;5030563;28;20018;-81
2020/12/02 02:56:03;;;;;;;8.38;7.43;;;3.30;95.30;;;;;;5029449;28;20032;-80
2020/12/02 02:58:28;;;;;;;8.93;7.22;;;1.50;94.90;;;;;;5029352;28;20120;-81
2020/12/02 03:00:55;;;;;;;8.32;7.10;;;1.50;99.90;;;;;;5011888;28;20033;-80
2020/12/02 03:03:21;;;;;;;8.52;7.30;;;1.90;94.80;;;;;;5012699;28;20431;-80
2020/12/02 03:05:47;;;;;;;8.90;7.28;;;1.60;94.80;;;;;;5029135;28;20013;-81
2020/12/02 03:08:13;;;;;;;9.93;7.18;;;2.90;95.20;;;;;;5012570;28;20460;-80
2020/12/02 03:10:39;;;;;;;7.13;6.25;;;2.90;95.20;;;;;;5012684;28;20037;-79
2020/12/02 03:13:21;;;;;;;8.07;7.22;;;1.50;99.90;;;;;;5012497;28;20040;-80
2020/12/02 03:15:47;;;;;;;10.38;6.78;;;2.00;99.90;;;;;;5029486;28;20075;-81
2020/12/02 03:18:13;;;;;;;8.73;6.65;;;3.20;99.30;;;;;;5012595;28;20468;-81
2020/12/02 03:20:41;;;;;;;7.32;6.25;;;1.40;94.90;;;;;;5012374;28;20040;-80
2020/12/02 03:23:11;;;;;;;7.95;6.68;;;2.80;95.20;;;;;;4996523;28;20061;-80
2020/12/02 03:25:37;;;;;;;7.45;6.38;;;1.70;99.90;;;;;;4995895;28;20029;-81
2020/12/02 03:28:02;;;;;;;7.40;6.35;;;3.20;95.40;;;;;;5012070;28;20486;-82
2020/12/02 03:30:28;;;;;;;7.45;6.50;;;1.70;95.10;;;;;;5012071;28;20405;-80
2020/12/02 03:32:54;;;;;;;6.70;6.00;;;3.40;95.40;;;;;;4995810;28;20030;-80
2020/12/02 03:35:19;;;;;;;6.88;6.03;;;3.70;95.60;;;;;;5012091;28;20025;-80
2020/12/02 03:37:45;;;;;;;7.25;5.72;;;1.70;99.90;;;;;;5028537;28;20155;-81
2020/12/02 03:40:10;;;;;;;7.82;6.40;;;3.40;95.60;;;;;;5011867;28;20114;-81
2020/12/02 03:42:36;;;;;;;7.15;6.40;;;1.40;94.90;;;;;;5028072;28;20082;-81
2020/12/02 03:45:04;;;;;;;9.25;6.63;;;2.10;95.40;;;;;;4995760;28;20036;-80
2020/12/02 03:47:30;;;;;;;6.95;6.25;;;2.60;95.10;;;;;;5011132;28;20116;-80
2020/12/02 03:49:55;;;;;;;7.72;6.20;;;1.70;99.90;;;;;;5011683;28;20184;-80
2020/12/02 03:52:21;;;;;;;8.25;6.47;;;1.50;94.70;;;;;;5028477;28;20040;-81
2020/12/02 03:54:46;;;;;;;7.68;6.07;;;4.30;95.30;;;;;;5011880;28;20021;-81
2020/12/02 03:57:12;;;;;;;7.65;6.25;;;2.30;94.90;;;;;;5029613;28;20407;-80
2020/12/02 03:59:38;;;;;;;6.30;5.57;;;2.40;95.00;;;;;;5028270;28;20040;-80
2020/12/02 04:02:03;;;;;;;7.47;6.55;;;1.50;99.90;;;;;;5011647;28;20036;-80
2020/12/02 04:04:30;;;;;;;7.93;6.25;;;2.80;99.10;;;;;;5028156;28;20120;-80
2020/12/02 04:06:55;;;;;;;8.70;6.90;;;1.70;94.80;;;;;;5011525;28;20095;-80
2020/12/02 04:09:21;;;;;;;7.03;6.32;;;3.00;95.10;;;;;;5027806;28;20459;-80
2020/12/02 04:11:46;;;;;;;8.00;6.43;;;3.80;95.40;;;;;;5029394;28;20021;-80
2020/12/02 04:14:12;;;;;;;7.68;6.88;;;2.00;99.90;;;;;;5028046;28;20025;-81
2020/12/02 04:16:38;;;;;;;8.00;7.07;;;2.40;99.00;;;;;;5011390;28;20108;-80
2020/12/02 04:19:03;;;;;;;8.85;7.30;;;2.80;95.20;;;;;;4995281;28;20025;-82
2020/12/02 04:21:29;;;;;;;7.72;6.57;;;3.10;95.40;;;;;;5011315;28;20365;-80
2020/12/02 04:23:55;;;;;;;9.48;7.63;;;2.10;95.20;;;;;;4995047;28;20030;-80
2020/12/02 04:26:21;;;;;;;7.35;6.55;;;;;;;;;;5011047;28;20112;-80
2020/12/02 04:28:47;;;;;;;8.20;6.97;;;1.60;97.30;;;;;;5027944;28;20480;-80
2020/12/02 04:31:12;;;;;;;8.00;6.47;;;3.00;95.10;;;;;;5011393;28;20031;-80
2020/12/02 04:33:38;;;;;;;7.60;6.80;;;2.30;94.90;;;;;;5011369;28;20017;-80
2020/12/02 04:36:04;;;;;;;8.85;7.13;;;3.20;95.20;;;;;;5011335;28;20454;-80
2020/12/02 04:38:29;;;;;;;7.90;6.88;;;2.00;99.90;;;;;;5011056;28;20025;-80
2020/12/02 04:40:55;;;;;;;8.32;7.25;;;3.60;99.50;;;;;;5027563;28;20037;-80
2020/12/02 04:43:31;;;;;;;12.70;8.20;;;1.50;95.10;;;;;;5011075;28;20483;-80
2020/12/02 04:45:57;;;;;;;13.82;11.50;;;2.00;95.20;;;;;;5011921;28;20112;-81
2020/12/02 04:48:29;;;;;;;30.40;18.60;;;3.30;95.40;;;;;;5027379;28;20496;-80
2020/12/02 04:51:00;;;;;;;25.15;15.98;;;1.60;98.80;;;;;;5011615;28;20022;-79
2020/12/02 04:53:26;;;;;;;11.15;9.55;;;3.70;99.50;;;;;;5027710;28;20041;-80
2020/12/02 04:55:53;;;;;;;13.23;9.82;;;2.70;95.40;;;;;;5011209;28;20022;-80
2020/12/02 04:58:24;;;;;;;10.80;9.02;;;2.70;95.30;;;;;;5011089;28;20407;-80
2020/12/02 05:00:50;;;;;;;10.73;8.35;;;3.20;95.40;;;;;;5014559;28;20022;-81
2020/12/02 05:03:16;;;;;;;11.10;8.23;;;;;;;;;;5032562;28;20033;-82
2020/12/02 05:05:42;;;;;;;11.02;8.85;;;2.00;97.50;;;;;;5031212;28;20136;-80
2020/12/02 05:08:17;;;;;;;8.52;7.35;;;2.60;95.10;;;;;;5031475;28;20040;-79
2020/12/02 05:10:43;;;;;;;12.07;9.27;;;2.30;95.10;;;;;;5031305;28;20032;-80
2020/12/02 05:13:09;;;;;;;10.13;8.23;;;1.70;99.90;;;;;;5031484;28;20379;-82
2020/12/02 05:15:35;;;;;;;9.68;6.85;;;2.00;95.00;;;;;;4998355;28;20340;-80
2020/12/02 05:18:19;;;;;;;10.27;8.70;;;3.40;95.40;;;;;;5031948;28;20096;-80
2020/12/02 05:20:58;;;;;;;10.02;7.85;;;1.70;94.90;;;;;;5031857;28;20018;-80
2020/12/02 05:23:24;;;;;;;10.02;8.45;;;2.00;95.10;;;;;;5031036;28;20095;-80
2020/12/02 05:25:49;;;;;;;9.27;7.68;;;3.00;95.30;;;;;;5032024;28;20456;-79
2020/12/02 05:28:20;;;;;;;11.23;7.70;;;1.70;99.90;;;;;;5031774;28;20115;-80
2020/12/02 05:30:46;;;;;;;10.70;7.55;;;1.80;99.00;;;;;;5013320;28;20120;-80
2020/12/02 05:33:12;;;;;;;8.30;6.97;;;3.50;95.90;;;;;;5013877;28;20029;-81
2020/12/02 05:35:43;;;;;;;11.70;8.07;;;1.90;95.30;;;;;;5032627;28;20362;-81
2020/12/02 05:38:10;;;;;;;9.98;8.00;;;1.80;99.90;;;;;;5014417;28;20067;-80
2020/12/02 05:40:36;;;;;;;29.52;19.65;;;1.80;95.10;;;;;;5014265;28;20033;-80
2020/12/02 05:43:23;;;;;;;18.77;13.82;;;3.40;95.40;;;;;;5014175;28;20840;-81
2020/12/02 05:45:48;;;;;;;17.23;13.10;;;1.80;95.00;;;;;;5015577;28;20087;-79
2020/12/02 05:48:39;;;;;;;16.55;10.70;;;2.20;95.20;;;;;;5030077;28;20045;-80
2020/12/02 05:51:05;;;;;;;18.08;13.23;;;2.70;95.30;;;;;;5043356;28;20475;-84
2020/12/02 05:53:39;;;;;;;12.38;9.80;;;1.80;99.90;;;;;;4999085;28;20044;-81
2020/12/02 05:56:04;;;;;;;14.10;9.50;;;3.60;95.50;;;;;;5014992;28;20029;-79
2020/12/02 05:58:32;;;;;;;18.65;9.90;;;3.40;95.50;;;;;;5014183;28;20452;-81
2020/12/02 06:00:57;;;;;;;14.05;10.30;;;3.30;95.40;;;;;;5014344;28;20456;-78
2020/12/02 06:03:33;;;;;;;13.35;10.40;;;1.70;95.10;;;;;;5030732;28;20025;-81
2020/12/02 06:06:02;;;;;;;14.90;10.75;;;1.80;99.90;;;;;;5013886;28;20033;-78
2020/12/02 06:08:47;;;;;;;16.02;10.20;;;3.30;99.50;;;;;;5029585;28;20038;-79
2020/12/02 06:11:16;;;;;;;13.82;9.70;;;2.60;95.20;;;;;;5029134;28;20040;-77
2020/12/02 06:13:55;;;;;;;12.38;9.82;;;2.50;95.30;;;;;;5031852;28;20085;-79
2020/12/02 06:16:37;;;;;;;14.55;10.35;;;0.80;95.00;;;;;;5013836;28;20396;-80
2020/12/02 06:19:11;;;;;;;14.43;10.90;;;1.80;95.10;;;;;;5013955;28;20052;-82
2020/12/02 06:21:44;;;;;;;15.07;10.57;;;2.00;99.90;;;;;;5031573;28;20056;-81
2020/12/02 06:24:11;;;;;;;14.65;10.82;;;3.50;95.70;;;;;;5030287;28;20591;-81
2020/12/02 06:26:42;;;;;;;15.18;11.35;;;4.00;95.80;;;;;;4997113;28;20502;-79
2020/12/02 06:29:33;;;;;;;15.73;9.88;;;1.80;95.20;;;;;;5029522;28;20040;-77
2020/12/02 06:32:10;;;;;;;13.30;9.98;;;1.80;95.20;;;;;;5029500;28;20029;-77
2020/12/02 06:34:36;;;;;;;16.25;10.07;;;1.70;99.90;;;;;;5030615;28;20033;-77
2020/12/02 06:37:19;;;;;;;13.95;9.57;;;1.90;95.30;;;;;;5013349;28;20034;-77
2020/12/02 06:39:58;;;;;;;14.40;10.15;;;1.90;95.20;;;;;;5029445;28;20685;-77
2020/12/02 06:42:28;;;;;;;16.67;10.85;;;1.90;99.90;;;;;;5014146;28;20029;-78
2020/12/02 06:45:17;;;;;;;16.35;10.63;;;2.60;95.50;;;;;;5012616;28;20371;-78
2020/12/02 06:47:49;;;;;;;16.88;11.15;;;1.80;95.30;;;;;;5028911;28;20026;-77
2020/12/02 06:50:18;;;;;;;12.80;10.00;;;1.70;99.90;;;;;;5031010;28;20025;-77
2020/12/02 06:52:44;;;;;;;14.55;9.50;;;2.80;99.70;;;;;;5029714;28;20026;-77
2020/12/02 06:55:30;;;;;;;14.10;10.38;;;1.70;95.40;;;;;;5029493;28;20039;-78
2020/12/02 06:57:57;;;;;;;13.15;10.02;;;1.90;95.50;;;;;;5029161;28;20092;-78
2020/12/02 07:00:28;;;;;;;17.80;11.20;;;2.70;95.50;;;;;;5011808;28;20033;-78
2020/12/02 07:02:54;;;;;;;13.20;10.48;;;1.80;99.90;;;;;;5013744;28;20116;-77
2020/12/02 07:05:32;;;;;;;14.43;10.27;;;3.00;99.40;;;;;;5028263;28;20116;-77
2020/12/02 07:08:19;;;;;;;14.35;11.00;;;3.40;95.70;;;;;;5028679;28;20045;-76
2020/12/02 07:10:56;;;;;;;14.10;9.98;;;2.30;95.40;;;;;;5011343;28;20026;-76
2020/12/02 07:13:21;;;;;;;12.30;9.93;;;1.70;95.20;;;;;;5012387;28;20398;-75
2020/12/02 07:15:47;;;;;;;12.52;10.10;;;1.80;99.90;;;;;;5030099;28;20036;-77
2020/12/02 07:18:14;;;;;;;11.13;9.30;;;2.90;95.50;;;;;;5028606;28;20033;-76
2020/12/02 07:21:14;;;;;;;14.35;12.57;;;3.10;95.50;;;;;;5028867;28;20028;-77
2020/12/02 07:23:40;;;;;;;13.63;10.40;;;2.00;95.10;;;;;;5028764;28;20020;-76
2020/12/02 07:26:05;;;;;;;12.70;9.95;;;2.10;95.20;;;;;;5028724;28;20159;-76
2020/12/02 07:28:31;;;;;;;12.57;10.23;;;3.10;95.40;;;;;;5011750;28;20170;-76
2020/12/02 07:30:57;;;;;;;12.05;9.73;;;3.20;95.50;;;;;;5030150;28;20474;-76
2020/12/02 07:33:25;;;;;;;13.25;10.30;;;2.40;95.30;;;;;;5011703;28;20091;-77
2020/12/02 07:36:16;;;;;;;12.40;10.38;;;1.90;95.10;;;;;;5012062;28;20456;-77
2020/12/02 07:38:44;;;;;;;12.40;9.93;;;2.00;95.00;;;;;;5012082;28;20076;-76
2020/12/02 07:41:13;;;;;;;13.65;9.25;;;2.80;95.30;;;;;;5012088;28;20032;-77
2020/12/02 07:43:39;;;;;;;12.88;9.60;;;2.10;99.90;;;;;;5028530;28;20048;-76
2020/12/02 07:46:04;;;;;;;12.30;9.88;;;2.10;98.90;;;;;;5011643;28;20033;-77
2020/12/02 07:48:30;;;;;;;11.65;9.50;;;2.20;95.20;;;;;;5028202;28;20053;-77
2020/12/02 07:50:59;;;;;;;12.45;9.93;;;1.90;95.30;;;;;;4995623;28;20065;-77
2020/12/02 07:53:33;;;;;;;13.68;9.75;;;2.10;98.10;;;;;;4995668;28;20049;-78
2020/12/02 07:55:59;;;;;;;12.15;9.85;;;2.20;95.00;;;;;;5029378;28;20025;-77
2020/12/02 07:58:28;;;;;;;12.15;9.95;;;1.90;94.90;;;;;;5028069;28;20150;-77
2020/12/02 08:00:54;;;;;;;12.00;9.85;;;2.60;95.00;;;;;;5011717;28;20048;-76
2020/12/02 08:03:37;;;;;;;11.48;9.13;;;2.30;99.80;;;;;;5011695;28;20072;-76
2020/12/02 08:06:04;;;;;;;15.23;11.82;;;2.40;94.80;;;;;;5013075;28;20371;-77
2020/12/02 08:08:30;;;;;;;13.27;9.30;;;2.80;94.90;;;;;;5028116;28;20065;-76
2020/12/02 08:11:22;;;;;;;16.55;10.75;;;2.40;94.80;;;;;;5029090;28;20061;-77
2020/12/02 08:13:48;;;;;;;14.40;11.43;;;2.40;94.70;;;;;;5025950;28;20037;-76
2020/12/02 08:16:32;;;;;;;14.05;11.02;;;2.10;99.90;;;;;;5027237;28;20107;-76
2020/12/02 08:18:58;;;;;;;14.70;11.20;;;2.10;94.50;;;;;;5012807;28;20049;-77
2020/12/02 08:21:25;;;;;;;13.05;9.95;;;2.10;94.60;;;;;;5026765;28;20467;-77
2020/12/02 08:24:20;;;;;;;14.68;11.02;;;2.60;94.80;;;;;;5027669;28;20164;-77
2020/12/02 08:26:46;;;;;;;12.88;10.38;;;2.10;94.60;;;;;;5027618;28;20041;-77
2020/12/02 08:29:12;;;;;;;13.30;10.60;;;2.20;99.90;;;;;;5027748;28;20037;-78
2020/12/02 08:31:37;;;;;;;15.45;10.30;;;2.80;98.60;;;;;;5027753;28;20471;-77
2020/12/02 08:34:32;;;;;;;12.25;10.23;;;2.10;94.60;;;;;;5010093;28;20375;-77
2020/12/02 08:37:10;;;;;;;13.75;10.00;;;2.20;94.60;;;;;;5027943;28;20025;-77
2020/12/02 08:39:40;;;;;;;13.18;10.10;;;2.20;94.90;;;;;;5014831;28;20033;-77
2020/12/02 08:42:05;;;;;;;12.85;10.23;;;2.20;99.90;;;;;;5011468;28;20025;-79
2020/12/02 08:44:31;;;;;;;13.23;10.68;;;2.60;98.40;;;;;;5010781;28;20357;-76
2020/12/02 08:47:01;;;;;;;13.50;11.18;;;2.90;94.70;;;;;;5011264;28;20038;-77
2020/12/02 08:49:30;;;;;;;13.55;11.32;;;2.40;94.40;;;;;;5011301;28;20026;-77
2020/12/02 08:51:55;;;;;;;13.95;10.43;;;2.50;94.40;;;;;;5011442;28;20107;-76
2020/12/02 08:54:25;;;;;;;15.68;11.02;;;2.60;99.90;;;;;;5010998;28;20479;-77
2020/12/02 08:56:53;;;;;;;15.95;11.38;;;2.70;96.60;;;;;;5028084;28;20107;-77
2020/12/02 08:59:18;;;;;;;14.10;10.75;;;2.40;93.30;;;;;;5027587;28;20026;-76
2020/12/02 09:01:44;;;;;;;13.00;10.73;;;3.60;93.70;;;;;;5027633;28;20021;-77
2020/12/02 09:04:10;;;;;;;11.68;9.93;;;2.50;93.50;;;;;;5028878;28;20034;-77
2020/12/02 09:06:36;;;;;;;12.80;10.50;;;;;;;;;;5010940;28;20030;-76
2020/12/02 09:09:02;;;;;;;14.50;10.98;;;2.50;96.10;;;;;;5028402;28;20111;-77
2020/12/02 09:11:33;;;;;;;13.15;10.73;;;3.10;93.90;;;;;;4994567;28;20029;-77
2020/12/02 09:13:59;;;;;;;12.82;10.73;;;2.70;93.80;;;;;;5010978;28;20037;-77
2020/12/02 09:16:27;;;;;;;14.07;11.90;;;2.80;93.60;;;;;;5010890;28;20029;-77
2020/12/02 09:18:54;;;;;;;16.60;12.95;;;3.00;99.90;;;;;;5026776;28;20025;-76
2020/12/02 09:21:20;;;;;;;11.38;10.05;;;2.90;97.00;;;;;;4994529;28;20037;-76
2020/12/02 09:23:46;;;;;;;12.50;10.70;;;2.80;92.90;;;;;;5028499;28;20032;-76
2020/12/02 09:26:15;;;;;;;13.20;11.15;;;2.90;92.90;;;;;;5026937;28;20108;-77
2020/12/02 09:28:41;;;;;;;12.43;10.48;;;2.80;92.70;;;;;;5010654;28;20053;-76
2020/12/02 09:31:06;;;;;;;11.80;10.15;;;2.80;99.90;;;;;;5010631;28;20493;-77
2020/12/02 09:33:33;;;;;;;12.77;11.02;;;3.10;96.40;;;;;;5028485;28;20029;-76
2020/12/02 09:35:58;;;;;;;14.75;10.23;;;3.00;92.70;;;;;;5027376;28;20036;-76
2020/12/02 09:38:24;;;;;;;12.55;10.68;;;2.90;92.60;;;;;;5028486;28;20108;-76
2020/12/02 09:40:50;;;;;;;12.80;10.25;;;3.10;92.60;;;;;;5027395;28;20052;-76
2020/12/02 09:43:25;;;;;;;14.63;10.93;;;3.20;99.90;;;;;;5027122;28;20029;-76
2020/12/02 09:45:55;;;;;;;14.30;11.68;;;2.90;95.00;;;;;;5027733;28;20100;-77
2020/12/02 09:48:23;;;;;;;14.15;11.63;;;3.00;92.50;;;;;;5030779;28;20037;-77
2020/12/02 09:50:50;;;;;;;13.35;10.68;;;3.60;92.60;;;;;;5030362;28;20463;-76
2020/12/02 09:53:21;;;;;;;11.88;10.60;;;3.10;99.90;;;;;;5031941;28;20025;-76
2020/12/02 09:55:46;;;;;;;13.43;10.05;;;3.30;96.50;;;;;;5014319;28;20112;-76
2020/12/02 09:58:12;;;;;;;11.00;9.43;;;3.20;92.60;;;;;;5032136;28;20437;-77
2020/12/02 10:00:38;;;;;;;9.85;8.85;;;3.20;92.40;;;;;;5029774;28;20025;-76
2020/12/02 10:03:20;;;;;;;11.50;9.98;;;3.20;99.90;;;;;;5030249;28;20041;-76
2020/12/02 10:06:04;;;;;;;15.45;13.85;;;3.30;91.70;;;;;;5030290;28;20030;-77
2020/12/02 10:09:01;;;;;;;14.77;12.93;;;3.40;91.80;;;;;;5031231;28;20467;-76
2020/12/02 10:11:50;;;;;;;11.70;9.48;;;3.40;91.50;;;;;;5031180;28;20033;-76
2020/12/02 10:14:52;;;;;;;10.27;8.63;;;3.30;99.90;;;;;;5031506;28;20097;-76
2020/12/02 10:17:43;;;;;;;10.15;7.78;;;3.50;90.40;;;;;;5030017;28;20053;-76
2020/12/02 10:20:20;;;;;;;9.17;8.00;;;3.70;93.00;;;;;;5030369;28;20034;-77
2020/12/02 10:23:01;;;;;;;9.57;8.43;;;3.70;90.30;;;;;;5030971;28;20147;-77
2020/12/02 10:25:48;;;;;;;10.10;8.65;;;4.80;90.00;;;;;;5014177;28;20041;-76
2020/12/02 10:28:46;;;;;;;10.05;8.32;;;4.80;87.70;;;;;;5030941;28;20057;-77
2020/12/02 10:31:22;;;;;;;9.15;7.38;;;5.10;85.40;;;;;;5031214;28;20038;-77
2020/12/02 10:34:00;;;;;;;9.98;8.45;;;5.20;90.70;;;;;;5029832;28;20036;-76
2020/12/02 10:36:36;;;;;;;10.05;8.32;;;5.20;84.50;;;;;;5031027;28;20025;-76
2020/12/02 10:39:06;;;;;;;8.85;7.93;;;5.20;84.30;;;;;;5029569;28;20025;-76
2020/12/02 10:42:00;;;;;;;9.13;8.07;;;5.00;88.80;;;;;;5029217;28;20455;-78
2020/12/02 10:44:56;;;;;;;10.77;7.88;;;4.90;88.70;;;;;;5031436;28;20025;-77
2020/12/02 10:47:27;;;;;;;9.57;8.30;;;4.90;83.90;;;;;;5029431;28;20041;-77
2020/12/02 10:49:53;;;;;;;10.88;8.60;;;4.80;83.80;;;;;;5030763;28;20018;-77
2020/12/02 10:52:19;;;;;;;10.23;8.68;;;4.70;85.00;;;;;;4996552;28;20116;-78
2020/12/02 10:54:46;;;;;;;11.50;8.50;;;4.80;85.20;;;;;;5029490;28;20033;-76
2020/12/02 10:57:17;;;;;;;10.68;8.88;;;4.90;90.40;;;;;;5027894;28;20092;-77
2020/12/02 10:59:45;;;;;;;10.98;8.65;;;5.50;84.70;;;;;;5013051;28;20402;-76
2020/12/02 11:02:18;;;;;;;9.85;8.80;;;5.90;77.80;;;;;;5028495;28;20459;-77
2020/12/02 11:04:47;;;;;;;6.75;5.80;;;6.70;92.50;;;;;;5030487;28;20103;-75
2020/12/02 11:07:51;;;;;;;6.15;4.65;;;6.80;67.70;;;;;;5029375;28;20364;-78
2020/12/02 11:10:18;;;;;;;5.68;4.90;;;6.90;70.20;;;;;;5028953;28;20037;-76
2020/12/02 11:13:06;;;;;;;6.78;5.68;;;6.20;65.60;;;;;;5028501;28;20084;-78
2020/12/02 11:15:48;;;;;;;6.63;5.20;;;5.30;91.10;;;;;;5012400;28;20038;-77
2020/12/02 11:18:27;;;;;;;;;;;5.30;68.10;;;;;;5029524;28;20029;-78
2020/12/02 11:20:56;;;;;;;8.20;5.45;;;5.00;69.20;;;;;;5030004;28;19912;-77
2020/12/02 11:23:44;;;;;;;5.53;4.75;;;4.70;70.00;;;;;;5028470;28;20116;-77
2020/12/02 11:26:30;;;;;;;6.47;5.47;;;4.30;92.70;;;;;;4997443;28;20035;-76
2020/12/02 11:28:56;;;;;;;7.68;5.88;;;4.60;72.00;;;;;;5028946;28;20034;-77
2020/12/02 11:31:48;;;;;;;8.38;5.78;;;4.60;73.40;;;;;;5028488;28;20079;-78
2020/12/02 11:34:35;;;;;;;5.72;4.93;;;4.20;75.10;;;;;;5012187;28;20025;-76
2020/12/02 11:37:11;;;;;;;8.52;6.50;;;4.10;76.70;;;;;;5029954;28;20042;-78
2020/12/02 11:39:57;;;;;;;8.27;6.47;;;3.90;94.70;;;;;;5028492;28;20075;-79
2020/12/02 11:42:28;;;;;;;7.07;5.82;;;3.80;88.90;;;;;;5012864;28;20025;-78
2020/12/02 11:44:56;;;;;;;6.65;5.57;;;4.00;76.00;;;;;;5012592;28;20037;-77
2020/12/02 11:47:41;;;;;;;7.60;6.25;;;4.00;76.30;;;;;;5028346;28;20460;-78
2020/12/02 11:50:13;;;;;;;7.50;5.60;;;4.10;95.50;;;;;;5013367;28;20028;-77
2020/12/02 11:53:04;;;;;;;7.38;5.85;;;4.00;76.60;;;;;;5012637;28;20121;-77
2020/12/02 11:55:29;;;;;;;9.00;5.78;;;3.90;82.40;;;;;;5029593;28;20027;-77
2020/12/02 11:57:56;;;;;;;9.18;6.07;;;4.00;75.80;;;;;;5011500;28;20107;-77
2020/12/02 12:00:21;;;;;;;9.20;5.65;;;4.10;75.40;;;;;;5012181;28;20523;-77
2020/12/02 12:03:14;;;;;;;6.47;4.90;;;3.90;94.80;;;;;;5028424;28;20121;-78
2020/12/02 12:05:46;;;;;;;5.75;4.60;;;3.90;76.50;;;;;;5028084;28;20033;-78
2020/12/02 12:08:18;;;;;;;;;;;3.90;76.60;;;;;;5028096;28;20113;-78
2020/12/02 12:10:50;;;;;;;10.43;6.40;;;3.80;95.20;;;;;;5011320;28;19999;-77
2020/12/02 12:13:20;;;;;;;8.60;5.20;;;3.90;77.70;;;;;;5027381;28;20116;-77
2020/12/02 12:15:59;;;;;;;7.07;5.55;;;4.00;77.60;;;;;;5012297;28;20076;-77
2020/12/02 12:18:40;;;;;;;7.40;6.20;;;4.20;78.30;;;;;;5012729;28;20030;-77
2020/12/02 12:21:17;;;;;;;5.97;5.25;;;4.20;76.80;;;;;;5028856;28;20025;-77
2020/12/02 12:23:53;;;;;;;6.38;5.43;;;4.60;94.60;;;;;;5028091;28;20052;-78
2020/12/02 12:26:19;;;;;;;7.25;5.93;;;4.30;76.30;;;;;;5027993;28;20056;-78
2020/12/02 12:28:45;;;;;;;7.18;6.07;;;4.60;77.10;;;;;;5027510;28;20049;-77
2020/12/02 12:31:16;;;;;;;6.93;5.80;;;4.50;77.60;;;;;;5027592;28;20025;-78
2020/12/02 12:33:46;;;;;;;7.75;6.60;;;4.60;77.90;;;;;;5011663;28;20465;-78
2020/12/02 12:36:20;;;;;;;7.63;5.85;;;4.70;77.10;;;;;;5011936;28;20033;-78
2020/12/02 12:38:50;;;;;;;7.65;6.35;;;4.80;84.10;;;;;;5011104;28;20026;-77
2020/12/02 12:41:28;;;;;;;8.70;6.45;;;4.80;74.50;;;;;;5011679;28;20065;-78
2020/12/02 12:43:53;;;;;;;6.70;6.00;;;4.80;76.10;;;;;;5012502;28;20071;-78
2020/12/02 12:46:23;;;;;;;8.15;7.38;;;4.30;76.70;;;;;;5028714;28;20021;-77
2020/12/02 12:48:49;;;;;;;7.03;5.95;;;4.90;77.20;;;;;;5011253;28;20371;-78
2020/12/02 12:51:15;;;;;;;6.72;5.20;;;5.00;76.30;;;;;;5011293;28;20137;-77
2020/12/02 12:53:41;;;;;;;6.90;5.38;;;5.00;74.60;;;;;;5011124;28;20030;-77
2020/12/02 12:56:10;;;;;;;6.40;5.13;;;5.00;75.70;;;;;;5027224;28;20034;-78
2020/12/02 12:58:36;;;;;;;5.85;4.95;;;5.00;74.10;;;;;;4994906;28;20108;-78
2020/12/02 13:01:02;;;;;;;6.03;5.22;;;5.10;74.50;;;;;;5011500;28;20104;-78
2020/12/02 13:03:28;;;;;;;5.63;5.03;;;5.00;80.80;;;;;;5028361;28;20452;-78
2020/12/02 13:06:16;;;;;;;7.63;5.75;;;5.00;75.40;;;;;;5011195;28;20025;-78
2020/12/02 13:09:07;;;;;;;8.00;6.32;;;5.00;76.00;;;;;;5027321;28;20124;-78
2020/12/02 13:11:54;;;;;;;6.05;5.45;;;5.10;76.20;;;;;;4994656;28;20363;-78
2020/12/02 13:14:26;;;;;;;7.10;5.90;;;5.20;76.40;;;;;;5026361;28;20844;-77
2020/12/02 13:17:15;;;;;;;7.40;6.20;;;5.40;75.80;;;;;;5027139;28;20064;-77